createdAt,value
2022-10-17T06:27:23.700Z,13.63
2022-10-17T06:30:01.330Z,9.33
2022-10-17T06:32:39.763Z,8.77
2022-10-17T06:35:17.021Z,13.23
2022-10-17T06:37:53.721Z,13.13
2022-10-17T06:40:31.783Z,13.77
2022-10-17T06:43:11.968Z,15.23
2022-10-17T06:46:09.961Z,18.07
2022-10-17T06:48:49.195Z,19.57
2022-10-17T06:51:40.876Z,20.13
2022-10-17T06:54:20.428Z,22.10
2022-10-17T06:57:00.523Z,15.90
2022-10-17T06:59:39.960Z,15.50
2022-10-17T07:02:21.668Z,15.87
2022-10-17T07:04:59.427Z,18.50
2022-10-17T07:07:40.074Z,21.40
2022-10-17T07:10:20.225Z,19.40
2022-10-17T07:12:57.327Z,15.30
2022-10-17T07:15:36.711Z,14.23
2022-10-17T07:18:14.111Z,15.67
2022-10-17T07:20:57.767Z,12.70
2022-10-17T07:23:37.328Z,10.65
2022-10-17T07:26:16.473Z,13.60
2022-10-17T07:28:58.100Z,11.67
2022-10-17T07:31:49.094Z,12.83
2022-10-17T07:34:27.865Z,12.45
2022-10-17T07:37:07.314Z,13.70
2022-10-17T07:39:44.824Z,9.32
2022-10-17T07:42:22.263Z,9.85
2022-10-17T07:45:00.961Z,15.32
2022-10-17T07:47:43.292Z,13.57
2022-10-17T07:50:23.583Z,9.75
2022-10-17T07:53:00.495Z,12.15
2022-10-17T07:55:37.562Z,9.85
2022-10-17T07:58:14.293Z,11.88
2022-10-17T08:00:51.978Z,15.40
2022-10-17T08:03:31.491Z,12.52
2022-10-17T08:06:09.109Z,8.00
2022-10-17T08:08:46.259Z,10.68
2022-10-17T08:11:23.620Z,8.10
2022-10-17T08:14:00.584Z,7.28
2022-10-17T08:16:37.666Z,9.80
2022-10-17T08:19:17.121Z,10.35
2022-10-17T08:21:54.790Z,8.00
2022-10-17T08:24:31.991Z,9.32
2022-10-17T08:27:11.732Z,13.93
2022-10-17T08:29:49.210Z,8.85
2022-10-17T08:32:29.358Z,7.57
2022-10-17T08:35:13.155Z,11.30
2022-10-17T08:37:50.227Z,7.07
2022-10-17T08:40:31.056Z,8.23
2022-10-17T08:43:42.796Z,14.50
2022-10-17T08:46:20.421Z,7.95
2022-10-17T08:48:57.850Z,8.05
2022-10-17T08:51:46.427Z,7.97
2022-10-17T08:54:29.588Z,8.77
2022-10-17T08:57:06.368Z,7.90
2022-10-17T08:59:43.570Z,5.72
2022-10-17T09:02:42.930Z,7.45
2022-10-17T09:05:40.496Z,9.88
2022-10-17T09:08:39.854Z,10.98
2022-10-17T09:11:28.456Z,7.65
2022-10-17T09:14:20.419Z,6.13
2022-10-17T09:17:14.475Z,8.18
2022-10-17T09:20:03.354Z,7.85
2022-10-17T09:22:45.811Z,7.50
2022-10-17T09:25:25.844Z,5.28
2022-10-17T09:28:14.451Z,6.32
2022-10-17T09:30:57.451Z,7.53
2022-10-17T09:33:56.384Z,6.22
2022-10-17T09:36:37.250Z,5.70
2022-10-17T09:39:20.145Z,4.75
2022-10-17T09:42:02.251Z,6.47
2022-10-17T09:44:44.653Z,5.93
2022-10-17T09:47:31.913Z,5.95
2022-10-17T09:50:18.210Z,5.25
2022-10-17T09:52:56.576Z,6.63
2022-10-17T09:55:43.643Z,8.27
2022-10-17T09:58:25.513Z,6.10
2022-10-17T10:01:24.089Z,6.13
2022-10-17T10:04:18.098Z,5.63
2022-10-17T10:07:07.752Z,6.82
2022-10-17T10:09:49.348Z,5.95
2022-10-17T10:12:28.853Z,4.78
2022-10-17T10:15:36.615Z,8.60
2022-10-17T10:18:38.928Z,9.25
2022-10-17T10:21:20.398Z,7.88
2022-10-17T10:24:17.274Z,7.32
2022-10-17T10:26:55.874Z,5.60
2022-10-17T10:29:38.668Z,9.25
2022-10-17T10:32:25.549Z,6.93
2022-10-17T10:35:09.099Z,7.47
2022-10-17T10:37:49.619Z,7.93
2022-10-17T10:40:30.910Z,14.10
2022-10-17T10:43:09.710Z,11.20
2022-10-17T10:45:48.799Z,7.10
2022-10-17T10:48:31.021Z,6.82
2022-10-17T10:51:15.388Z,6.13
2022-10-17T10:53:58.860Z,7.78
2022-10-17T10:56:44.100Z,7.50
2022-10-17T10:59:28.660Z,7.43
2022-10-17T11:02:16.329Z,7.82
2022-10-17T11:05:01.662Z,9.15
2022-10-17T11:07:45.567Z,7.32
2022-10-17T11:10:29.755Z,10.63
2022-10-17T11:13:15.151Z,9.18
2022-10-17T11:15:57.797Z,6.93
2022-10-17T11:18:43.996Z,8.02
2022-10-17T11:21:30.135Z,7.35
2022-10-17T11:24:14.194Z,7.28
2022-10-17T11:26:59.193Z,8.50
2022-10-17T11:29:39.515Z,8.20
2022-10-17T11:32:26.441Z,9.80
2022-10-17T11:35:08.888Z,8.80
2022-10-17T11:37:54.418Z,8.57
2022-10-17T11:40:36.186Z,11.23
2022-10-17T11:43:18.852Z,8.43
2022-10-17T11:48:42.980Z,8.10
2022-10-17T11:54:28.049Z,10.60
2022-10-17T11:57:25.758Z,9.35
2022-10-17T12:00:22.907Z,7.30
2022-10-17T12:03:16.181Z,8.93
2022-10-17T12:06:00.300Z,11.43
2022-10-17T12:08:44.861Z,9.15
2022-10-17T12:11:43.679Z,13.65
2022-10-17T12:14:44.270Z,10.90
2022-10-17T12:17:39.191Z,9.18
2022-10-17T12:20:33.896Z,10.02
2022-10-17T12:23:30.103Z,8.68
2022-10-17T12:26:13.310Z,9.98
2022-10-17T12:29:07.719Z,8.85
2022-10-17T12:31:45.056Z,7.95
2022-10-17T12:34:25.788Z,12.27
2022-10-17T12:37:03.176Z,10.75
2022-10-17T12:39:48.818Z,8.82
2022-10-17T12:42:53.765Z,8.90
2022-10-17T12:45:54.148Z,8.65
2022-10-17T12:49:06.824Z,11.40
2022-10-17T12:52:23.306Z,8.45
2022-10-17T12:55:14.951Z,9.25
2022-10-17T12:58:00.588Z,9.25
2022-10-17T13:01:05.394Z,7.70
2022-10-17T13:03:52.812Z,7.68
2022-10-17T13:06:37.983Z,7.43
2022-10-17T13:09:29.576Z,6.95
2022-10-17T13:12:15.873Z,8.07
2022-10-17T13:14:57.035Z,9.68
2022-10-17T13:17:35.194Z,9.25
2022-10-17T13:20:29.015Z,11.00
2022-10-17T13:23:08.914Z,9.23
2022-10-17T13:25:45.694Z,13.82
2022-10-17T13:28:23.048Z,9.07
2022-10-17T13:30:59.907Z,9.35
2022-10-17T13:33:42.682Z,9.93
2022-10-17T13:36:23.114Z,11.52
2022-10-17T13:39:02.445Z,8.70
2022-10-17T13:41:39.690Z,9.15
2022-10-17T13:44:20.744Z,12.45
2022-10-17T13:46:57.692Z,8.80
2022-10-17T13:49:38.805Z,8.15
2022-10-17T13:52:24.553Z,9.10
2022-10-17T13:55:17.921Z,11.98
2022-10-17T14:00:31.985Z,9.38
2022-10-17T14:03:09.421Z,7.30
2022-10-17T14:06:19.723Z,8.02
2022-10-17T14:09:05.924Z,7.25
2022-10-17T14:11:45.705Z,9.40
2022-10-17T14:14:28.216Z,9.75
2022-10-17T14:19:46.006Z,9.95
2022-10-17T14:22:32.408Z,10.07
2022-10-17T14:25:36.645Z,9.75
2022-10-17T14:28:20.576Z,9.23
2022-10-17T14:31:12.235Z,8.32
2022-10-17T14:33:51.792Z,8.93
2022-10-17T14:36:39.203Z,8.57
2022-10-17T14:39:25.751Z,11.85
2022-10-17T14:42:06.307Z,9.25
2022-10-17T14:44:43.534Z,9.57
2022-10-17T14:47:44.022Z,9.63
2022-10-17T14:50:30.635Z,12.38
2022-10-17T14:53:22.785Z,9.75
2022-10-17T14:56:02.559Z,11.00
2022-10-17T14:58:42.486Z,11.73
2022-10-17T15:01:20.213Z,11.65
2022-10-17T15:03:56.982Z,10.85
2022-10-17T15:06:38.045Z,10.48
2022-10-17T15:09:15.837Z,11.10
2022-10-17T15:11:53.596Z,10.32
2022-10-17T15:14:33.195Z,12.98
2022-10-17T15:17:18.816Z,12.27
2022-10-17T15:19:55.764Z,12.13
2022-10-17T15:22:35.422Z,11.50
2022-10-17T15:25:13.087Z,16.05
2022-10-17T15:27:50.255Z,10.20
2022-10-17T15:30:32.848Z,13.50
2022-10-17T15:35:46.508Z,15.38
2022-10-17T15:38:23.644Z,13.77
2022-10-17T15:41:00.474Z,12.43
2022-10-17T15:43:37.516Z,15.77
2022-10-17T15:46:20.355Z,14.65
2022-10-17T15:48:58.885Z,11.35
2022-10-17T15:51:35.614Z,16.17
2022-10-17T15:57:09.606Z,15.68
2022-10-17T15:59:47.266Z,16.40
2022-10-17T16:02:27.508Z,11.50
2022-10-17T16:05:05.095Z,16.77
2022-10-17T16:07:41.913Z,16.35
2022-10-17T16:10:20.359Z,15.13
2022-10-17T16:12:57.995Z,17.48
2022-10-17T16:15:35.121Z,14.88
2022-10-17T16:18:14.512Z,13.63
2022-10-17T16:20:51.816Z,15.55
2022-10-17T16:23:29.083Z,16.00
2022-10-17T16:26:06.226Z,20.67
2022-10-17T16:28:46.101Z,16.30
2022-10-17T16:31:29.586Z,16.88
2022-10-17T16:34:09.614Z,15.45
2022-10-17T16:36:47.024Z,15.98
2022-10-17T16:39:23.799Z,18.42
2022-10-17T16:42:00.904Z,16.85
2022-10-17T16:44:37.915Z,17.52
2022-10-17T16:47:15.435Z,23.42
2022-10-17T16:49:55.206Z,20.90
2022-10-17T16:52:33.873Z,20.58
2022-10-17T16:55:13.342Z,21.38
2022-10-17T16:57:51.754Z,21.92
2022-10-17T17:00:29.609Z,20.45
2022-10-17T17:03:08.144Z,21.92
2022-10-17T17:05:53.610Z,21.05
2022-10-17T17:08:33.266Z,21.95
2022-10-17T17:11:12.137Z,22.05
2022-10-17T17:13:50.154Z,22.02
2022-10-17T17:16:30.376Z,22.02
2022-10-17T17:19:12.556Z,24.25
2022-10-17T17:21:53.385Z,23.25
2022-10-17T17:24:32.026Z,25.23
2022-10-17T17:27:12.821Z,22.02
2022-10-17T17:29:52.666Z,22.90
2022-10-17T17:32:30.276Z,28.38
2022-10-17T17:35:10.176Z,27.77
2022-10-17T17:37:50.274Z,28.13
2022-10-17T17:40:27.844Z,26.02
2022-10-17T17:43:05.324Z,25.13
2022-10-17T17:45:44.705Z,26.95
2022-10-17T17:48:21.821Z,26.42
2022-10-17T17:51:00.394Z,26.50
2022-10-17T17:53:41.113Z,25.13
2022-10-17T17:56:22.213Z,28.13
2022-10-17T17:59:02.711Z,27.23
2022-10-17T18:01:40.800Z,21.98
2022-10-17T18:04:18.003Z,23.70
2022-10-17T18:06:55.286Z,22.65
2022-10-17T18:09:35.127Z,26.75
2022-10-17T18:12:12.236Z,23.55
2022-10-17T18:14:49.727Z,24.17
2022-10-17T18:17:33.246Z,23.88
2022-10-17T18:20:11.557Z,23.45
2022-10-17T18:22:49.615Z,24.67
2022-10-17T18:25:29.746Z,26.80
2022-10-17T18:28:08.934Z,22.88
2022-10-17T18:30:46.740Z,23.83
2022-10-17T18:33:25.954Z,23.92
2022-10-17T18:36:08.255Z,23.17
2022-10-17T18:38:46.983Z,24.88
2022-10-17T18:41:29.899Z,22.65
2022-10-17T18:44:09.918Z,25.42
2022-10-17T18:46:48.078Z,23.13
2022-10-17T18:49:27.976Z,21.20
2022-10-17T18:52:07.910Z,21.33
2022-10-17T18:54:46.146Z,19.00
2022-10-17T18:57:26.657Z,19.33
2022-10-17T19:00:04.730Z,24.55
2022-10-17T19:02:42.214Z,23.52
2022-10-17T19:05:20.186Z,20.27
2022-10-17T19:07:58.844Z,19.20
2022-10-17T19:10:37.983Z,20.58
2022-10-17T19:13:21.475Z,22.73
2022-10-17T19:15:59.990Z,19.27
2022-10-17T19:18:37.872Z,16.50
2022-10-17T19:21:21.525Z,21.05
2022-10-17T19:24:02.941Z,15.18
2022-10-17T19:26:43.814Z,17.35
2022-10-17T19:29:27.623Z,19.27
2022-10-17T19:32:14.081Z,17.90
2022-10-17T19:34:54.787Z,17.17
2022-10-17T19:37:33.280Z,15.60
2022-10-17T19:40:16.555Z,20.20
2022-10-17T19:42:55.806Z,16.75
